createdAt,value
2022-10-17T00:00:42.130Z,101460.78
2022-10-17T00:03:09.658Z,101466.97
2022-10-17T00:05:41.120Z,101484.16
2022-10-17T00:08:08.084Z,101470.78
2022-10-17T00:10:35.062Z,101474.00
2022-10-17T00:13:01.771Z,101480.81
2022-10-17T00:15:28.326Z,101488.38
2022-10-17T00:17:55.002Z,101473.41
2022-10-17T00:20:21.646Z,101471.97
2022-10-17T00:22:48.217Z,101473.50
2022-10-17T00:25:14.925Z,101471.66
2022-10-17T00:27:42.583Z,101465.44
2022-10-17T00:30:14.191Z,101466.31
2022-10-17T00:32:41.727Z,101470.25
2022-10-17T00:35:09.131Z,101470.81
2022-10-17T00:37:35.729Z,101480.66
2022-10-17T00:40:03.000Z,101476.19
2022-10-17T00:42:30.036Z,101473.28
2022-10-17T00:45:18.206Z,101477.28
2022-10-17T00:47:50.231Z,101474.19
2022-10-17T00:50:18.121Z,101472.41
2022-10-17T00:52:47.012Z,101476.38
2022-10-17T00:55:22.862Z,101474.50
2022-10-17T00:57:50.379Z,101493.81
2022-10-17T01:00:19.932Z,101495.03
2022-10-17T01:02:46.784Z,101497.38
2022-10-17T01:05:15.654Z,101490.31
2022-10-17T01:07:44.181Z,101505.63
2022-10-17T01:10:11.979Z,101495.44
2022-10-17T01:12:58.792Z,101503.72
2022-10-17T01:16:02.277Z,101510.31
2022-10-17T01:18:31.765Z,101511.25
2022-10-17T01:21:03.419Z,101508.41
2022-10-17T01:23:33.375Z,101515.38
2022-10-17T01:26:21.525Z,101497.88
2022-10-17T01:29:28.509Z,101504.78
2022-10-17T01:32:07.368Z,101504.50
2022-10-17T01:34:37.687Z,101506.72
2022-10-17T01:37:28.549Z,101505.88
2022-10-17T01:39:58.534Z,101492.69
2022-10-17T01:42:37.133Z,101486.09
2022-10-17T01:45:18.029Z,101483.44
2022-10-17T01:47:47.867Z,101497.44
2022-10-17T01:50:21.303Z,101499.28
2022-10-17T01:53:12.424Z,101504.63
2022-10-17T01:55:43.759Z,101503.22
2022-10-17T01:58:17.131Z,101510.91
2022-10-17T02:00:46.602Z,101508.44
2022-10-17T02:03:18.867Z,101503.66
2022-10-17T02:05:45.866Z,101519.81
2022-10-17T02:08:13.095Z,101525.88
2022-10-17T02:10:54.307Z,101517.44
2022-10-17T02:13:32.930Z,101522.03
2022-10-17T02:16:13.301Z,101522.09
2022-10-17T02:19:23.578Z,101524.06
2022-10-17T02:22:21.149Z,101522.41
2022-10-17T02:24:58.743Z,101520.03
2022-10-17T02:27:56.379Z,101513.97
2022-10-17T02:30:47.042Z,101508.06
2022-10-17T02:33:38.173Z,101517.78
2022-10-17T02:36:14.978Z,101525.81
2022-10-17T02:38:44.338Z,101518.31
2022-10-17T02:41:15.714Z,101528.16
2022-10-17T02:43:45.464Z,101513.69
2022-10-17T02:46:20.767Z,101516.13
2022-10-17T02:48:53.301Z,101513.25
2022-10-17T02:52:01.203Z,101514.94
2022-10-17T02:54:42.815Z,101517.41
2022-10-17T02:57:18.844Z,101524.16
2022-10-17T02:59:46.813Z,101526.75
2022-10-17T03:02:13.469Z,101532.88
2022-10-17T03:04:46.618Z,101523.38
2022-10-17T03:07:13.578Z,101520.84
2022-10-17T03:09:40.123Z,101513.09
2022-10-17T03:12:06.691Z,101520.97
2022-10-17T03:14:33.993Z,101519.28
2022-10-17T03:17:00.989Z,101531.63
2022-10-17T03:19:27.662Z,101530.13
2022-10-17T03:21:54.301Z,101535.66
2022-10-17T03:24:21.721Z,101541.00
2022-10-17T03:26:48.340Z,101539.44
2022-10-17T03:29:15.048Z,101540.41
2022-10-17T03:31:41.994Z,101546.53
2022-10-17T03:34:09.927Z,101553.50
2022-10-17T03:36:36.762Z,101547.41
2022-10-17T03:39:04.032Z,101544.78
2022-10-17T03:41:31.127Z,101551.69
2022-10-17T03:43:58.144Z,101545.75
2022-10-17T03:46:25.240Z,101550.34
2022-10-17T03:48:52.462Z,101554.06
2022-10-17T03:51:19.402Z,101551.59
2022-10-17T03:53:51.154Z,101560.31
2022-10-17T03:56:21.066Z,101557.84
2022-10-17T03:58:56.552Z,101563.28
2022-10-17T04:01:23.921Z,101555.75
2022-10-17T04:03:52.713Z,101563.25
2022-10-17T04:06:20.345Z,101553.97
2022-10-17T04:08:47.593Z,101555.84
2022-10-17T04:11:21.518Z,101572.34
2022-10-17T04:13:53.975Z,101562.16
2022-10-17T04:16:20.928Z,101565.00
2022-10-17T04:18:59.860Z,101556.50
2022-10-17T04:21:30.424Z,101554.84
2022-10-17T04:24:01.359Z,101556.66
2022-10-17T04:26:51.300Z,101542.72
2022-10-17T04:29:19.332Z,101532.44
2022-10-17T04:31:49.863Z,101539.47
2022-10-17T04:34:30.180Z,101549.66
2022-10-17T04:36:57.198Z,101557.19
2022-10-17T04:39:23.935Z,101554.22
2022-10-17T04:41:51.107Z,101552.41
2022-10-17T04:44:18.059Z,101551.69
2022-10-17T04:46:50.737Z,101544.03
2022-10-17T04:49:17.419Z,101551.84
2022-10-17T04:51:47.345Z,101567.28
2022-10-17T04:54:20.811Z,101568.94
2022-10-17T04:56:52.898Z,101571.41
2022-10-17T04:59:19.674Z,101578.34
2022-10-17T05:01:49.775Z,101579.06
2022-10-17T05:04:21.099Z,101573.72
2022-10-17T05:06:50.649Z,101570.91
2022-10-17T05:09:37.393Z,101571.69
2022-10-17T05:12:06.753Z,101569.16
2022-10-17T05:14:37.609Z,101570.69
2022-10-17T05:17:05.053Z,101564.81
2022-10-17T05:19:31.696Z,101576.13
2022-10-17T05:21:59.129Z,101582.88
2022-10-17T05:24:25.745Z,101588.78
2022-10-17T05:26:53.239Z,101582.41
2022-10-17T05:29:20.030Z,101589.06
2022-10-17T05:31:52.109Z,101590.00
2022-10-17T05:34:19.543Z,101580.66
2022-10-17T05:36:46.298Z,101587.56
2022-10-17T05:39:19.453Z,101583.09
2022-10-17T05:41:47.583Z,101595.16
2022-10-17T05:44:14.255Z,101596.88
2022-10-17T05:46:45.089Z,101606.47
2022-10-17T05:49:19.675Z,101597.75
2022-10-17T05:51:52.457Z,101597.97
2022-10-17T05:54:19.209Z,101600.63
2022-10-17T05:56:45.846Z,101605.78
2022-10-17T05:59:12.444Z,101615.88
2022-10-17T06:01:48.359Z,101608.94
2022-10-17T06:04:21.111Z,101606.13
2022-10-17T06:06:47.741Z,101613.09
2022-10-17T06:09:14.348Z,101614.66
2022-10-17T06:11:46.142Z,101611.06
2022-10-17T06:14:12.942Z,101613.66
2022-10-17T06:16:41.069Z,101615.13
2022-10-17T06:19:07.932Z,101608.81
2022-10-17T06:21:36.634Z,101606.72
2022-10-17T06:24:10.639Z,101595.31
2022-10-17T06:26:40.646Z,101589.03
2022-10-17T06:29:08.743Z,101598.41
2022-10-17T06:31:41.542Z,101599.72
2022-10-17T06:34:08.269Z,101606.41
2022-10-17T06:36:35.389Z,101612.09
2022-10-17T06:39:02.355Z,101606.25
2022-10-17T06:41:35.860Z,101614.91
2022-10-17T06:44:10.995Z,101615.69
2022-10-17T06:46:46.926Z,101611.31
2022-10-17T06:49:16.579Z,101614.53
2022-10-17T06:52:17.423Z,101617.00
2022-10-17T06:54:58.249Z,101615.84
2022-10-17T06:57:41.851Z,101622.47
2022-10-17T07:00:28.331Z,101618.56
2022-10-17T07:02:56.946Z,101624.22
2022-10-17T07:05:23.668Z,101612.53
2022-10-17T07:07:51.851Z,101614.78
2022-10-17T07:10:19.030Z,101606.72
2022-10-17T07:12:45.913Z,101600.53
2022-10-17T07:15:12.848Z,101614.91
2022-10-17T07:17:39.561Z,101606.63
2022-10-17T07:20:06.723Z,101601.63
2022-10-17T07:22:35.418Z,101585.50
2022-10-17T07:25:02.068Z,101587.28
2022-10-17T07:27:44.664Z,101599.00
2022-10-17T07:30:11.871Z,101598.50
2022-10-17T07:32:40.847Z,101597.41
2022-10-17T07:35:10.130Z,101596.09
2022-10-17T07:37:37.182Z,101611.00
2022-10-17T07:40:07.162Z,101593.66
2022-10-17T07:42:36.658Z,101605.38
2022-10-17T07:45:05.029Z,101601.06
2022-10-17T07:47:35.557Z,101606.06
2022-10-17T07:50:04.183Z,101611.13
2022-10-17T07:52:31.302Z,101604.38
2022-10-17T07:54:58.111Z,101602.28
2022-10-17T07:57:24.863Z,101599.41
2022-10-17T07:59:51.523Z,101590.47
2022-10-17T08:02:26.090Z,101585.81
2022-10-17T08:04:53.182Z,101582.63
2022-10-17T08:07:24.159Z,101590.88
2022-10-17T08:09:53.610Z,101592.41
2022-10-17T08:12:20.403Z,101586.84
2022-10-17T08:14:48.106Z,101593.41
2022-10-17T08:17:14.699Z,101593.41
2022-10-17T08:19:41.336Z,101587.78
2022-10-17T08:22:08.294Z,101582.50
2022-10-17T08:24:35.101Z,101584.06
2022-10-17T08:27:02.120Z,101574.94
2022-10-17T08:29:28.841Z,101569.09
2022-10-17T08:32:00.960Z,101572.09
2022-10-17T08:34:28.187Z,101571.56
2022-10-17T08:36:54.779Z,101563.94
2022-10-17T08:39:21.389Z,101557.19
2022-10-17T08:41:54.153Z,101559.06
2022-10-17T08:44:39.336Z,101553.34
2022-10-17T08:47:14.913Z,101548.81
2022-10-17T08:49:52.474Z,101549.44
2022-10-17T08:52:29.554Z,101556.63
2022-10-17T08:54:56.548Z,101534.38
2022-10-17T08:57:23.209Z,101536.50
2022-10-17T08:59:52.595Z,101544.53
2022-10-17T09:02:33.325Z,101543.94
2022-10-17T09:05:25.479Z,101540.75
2022-10-17T09:08:00.676Z,101536.13
2022-10-17T09:10:33.430Z,101529.84
2022-10-17T09:13:08.875Z,101523.25
2022-10-17T09:16:04.005Z,101521.84
2022-10-17T09:18:39.613Z,101518.91
2022-10-17T09:21:40.309Z,101499.00
2022-10-17T09:24:16.020Z,101494.91
2022-10-17T09:26:45.447Z,101502.56
2022-10-17T09:29:20.544Z,101506.69
2022-10-17T09:32:15.481Z,101506.75
2022-10-17T09:34:42.149Z,101507.63
2022-10-17T09:37:14.596Z,101509.19
2022-10-17T09:39:43.354Z,101498.16
2022-10-17T09:42:15.141Z,101485.50
2022-10-17T09:45:02.564Z,101479.44
2022-10-17T09:47:59.508Z,101486.47
2022-10-17T09:50:31.405Z,101472.63
2022-10-17T09:53:21.966Z,101465.91
2022-10-17T09:55:56.286Z,101466.63
2022-10-17T09:58:23.597Z,101480.28
2022-10-17T10:00:50.291Z,101475.44
2022-10-17T10:03:25.466Z,101482.16
2022-10-17T10:06:16.658Z,101485.81
2022-10-17T10:08:55.117Z,101475.50
2022-10-17T10:11:47.076Z,101477.81
2022-10-17T10:14:20.386Z,101470.44
2022-10-17T10:16:48.339Z,101470.34
2022-10-17T10:19:32.102Z,101463.22
2022-10-17T10:22:01.325Z,101462.56
2022-10-17T10:24:30.996Z,101436.53
2022-10-17T10:27:01.627Z,101409.31
2022-10-17T10:29:31.301Z,101399.69
2022-10-17T10:32:09.003Z,101398.22
2022-10-17T10:34:37.166Z,101390.34
2022-10-17T10:37:16.232Z,101376.59
2022-10-17T10:39:51.914Z,101359.91
2022-10-17T10:42:42.314Z,101336.31
2022-10-17T10:45:23.716Z,101301.78
2022-10-17T10:48:20.538Z,101281.97
2022-10-17T10:51:01.692Z,101298.78
2022-10-17T10:53:35.891Z,101322.56
2022-10-17T10:56:25.814Z,101343.44
2022-10-17T10:59:04.664Z,101332.22
2022-10-17T11:01:34.111Z,101335.13
2022-10-17T11:04:25.561Z,101336.94
2022-10-17T11:06:58.853Z,101351.53
2022-10-17T11:09:58.769Z,101343.16
2022-10-17T11:12:31.505Z,101343.16
2022-10-17T11:15:17.103Z,101352.41
2022-10-17T11:18:30.297Z,101347.16
2022-10-17T11:21:05.254Z,101344.31
2022-10-17T11:23:51.977Z,101333.56
2022-10-17T11:26:26.925Z,101331.81
2022-10-17T11:28:54.955Z,101338.63
2022-10-17T11:31:25.700Z,101339.88
2022-10-17T11:34:00.406Z,101321.25
2022-10-17T11:36:31.671Z,101329.25
2022-10-17T11:39:30.053Z,101319.97
2022-10-17T11:42:06.979Z,101318.66
2022-10-17T11:44:41.369Z,101316.97
2022-10-17T11:47:35.892Z,101319.75
2022-10-17T11:53:15.930Z,101291.66
2022-10-17T11:55:44.598Z,101282.13
2022-10-17T11:58:11.137Z,101276.84
2022-10-17T12:00:55.859Z,101273.84
2022-10-17T12:03:51.837Z,101268.22
2022-10-17T12:06:53.774Z,101272.03
2022-10-17T12:09:29.300Z,101268.06
2022-10-17T12:12:02.442Z,101264.34
2022-10-17T12:14:39.612Z,101263.75
2022-10-17T12:17:25.328Z,101247.94
2022-10-17T12:19:51.965Z,101255.22
2022-10-17T12:22:23.142Z,101258.44
2022-10-17T12:25:04.030Z,101247.03
2022-10-17T12:27:32.847Z,101248.84
2022-10-17T12:30:07.005Z,101254.56
2022-10-17T12:33:03.758Z,101245.06
2022-10-17T12:35:23.572Z,101244.72
2022-10-17T12:37:55.227Z,101245.88
2022-10-17T12:40:36.147Z,101245.78
2022-10-17T12:43:28.174Z,101252.72
2022-10-17T12:45:54.842Z,101249.22
2022-10-17T12:48:33.817Z,101252.13
2022-10-17T12:51:30.859Z,101255.69
2022-10-17T12:53:59.228Z,101245.59
2022-10-17T12:56:37.573Z,101237.22
2022-10-17T12:59:27.686Z,101227.81
2022-10-17T13:02:00.013Z,101222.78
2022-10-17T13:04:28.500Z,101222.94
2022-10-17T13:06:58.685Z,101215.53
2022-10-17T13:09:31.403Z,101216.00
2022-10-17T13:12:01.447Z,101222.25
2022-10-17T13:14:29.168Z,101229.13
2022-10-17T13:16:57.523Z,101213.41
2022-10-17T13:19:30.571Z,101216.88
2022-10-17T13:22:06.695Z,101214.34
2022-10-17T13:24:39.024Z,101217.34
2022-10-17T13:27:21.428Z,101202.53
2022-10-17T13:29:48.161Z,101204.91
2022-10-17T13:32:14.720Z,101195.13
2022-10-17T13:34:41.498Z,101206.34
2022-10-17T13:37:13.385Z,101197.50
2022-10-17T13:39:55.233Z,101174.69
2022-10-17T13:42:31.281Z,101182.78
2022-10-17T13:44:59.472Z,101178.75
2022-10-17T13:47:29.614Z,101172.78
2022-10-17T13:49:57.783Z,101163.34
2022-10-17T13:52:30.422Z,101163.53
2022-10-17T13:55:17.458Z,101161.38
2022-10-17T13:57:44.451Z,101163.28
2022-10-17T14:00:19.657Z,101156.63
2022-10-17T14:02:46.866Z,101161.16
2022-10-17T14:05:18.632Z,101167.25
2022-10-17T14:08:10.630Z,101177.03
2022-10-17T14:10:40.677Z,101180.13
2022-10-17T14:13:19.132Z,101174.75
2022-10-17T14:15:46.574Z,101175.25
2022-10-17T14:18:34.905Z,101172.00
2022-10-17T14:23:53.069Z,101165.06
2022-10-17T14:26:22.091Z,101176.66
2022-10-17T14:29:12.792Z,101176.03
2022-10-17T14:31:40.078Z,101167.22
2022-10-17T14:34:06.705Z,101162.69
2022-10-17T14:36:37.806Z,101156.59
2022-10-17T14:39:11.867Z,101156.00
2022-10-17T14:41:45.276Z,101166.03
2022-10-17T14:44:31.847Z,101167.94
2022-10-17T14:47:30.791Z,101177.94
2022-10-17T14:50:23.680Z,101198.47
2022-10-17T14:53:02.238Z,101205.97
2022-10-17T14:55:31.395Z,101209.56
2022-10-17T14:57:57.989Z,101202.03
2022-10-17T15:00:25.633Z,101219.69
2022-10-17T15:02:53.969Z,101210.03
2022-10-17T15:05:23.053Z,101208.16
2022-10-17T15:07:50.047Z,101218.06
2022-10-17T15:10:33.025Z,101230.00
2022-10-17T15:13:26.087Z,101227.28
2022-10-17T15:15:52.025Z,101229.38
2022-10-17T15:18:19.206Z,101220.16
2022-10-17T15:20:45.842Z,101223.22
2022-10-17T15:23:12.590Z,101222.91
2022-10-17T15:25:39.474Z,101227.38
2022-10-17T15:28:06.391Z,101228.97
2022-10-17T15:30:36.348Z,101231.88
2022-10-17T15:33:03.117Z,101230.31
2022-10-17T15:35:30.280Z,101227.84
2022-10-17T15:37:56.953Z,101219.63
2022-10-17T15:40:28.749Z,101225.00
2022-10-17T15:42:56.435Z,101225.47
2022-10-17T15:45:23.621Z,101216.28
2022-10-17T15:47:57.166Z,101193.19
2022-10-17T15:50:23.839Z,101194.50
2022-10-17T15:52:51.071Z,101189.28
2022-10-17T15:55:18.623Z,101181.44
2022-10-17T15:57:47.493Z,101182.75
2022-10-17T16:00:22.980Z,101175.59
2022-10-17T16:02:50.325Z,101173.19
2022-10-17T16:05:23.030Z,101168.06
2022-10-17T16:07:50.091Z,101166.50
2022-10-17T16:10:17.096Z,101163.31
2022-10-17T16:12:44.538Z,101168.09
2022-10-17T16:15:17.149Z,101167.25
2022-10-17T16:17:44.374Z,101163.66
2022-10-17T16:20:12.651Z,101165.34
2022-10-17T16:22:42.064Z,101177.75
2022-10-17T16:25:24.992Z,101182.50
2022-10-17T16:27:54.298Z,101192.66
2022-10-17T16:32:49.361Z,101206.84
2022-10-17T16:35:25.499Z,101200.84
2022-10-17T16:37:52.281Z,101198.47
2022-10-17T16:40:19.021Z,101197.13
2022-10-17T16:42:45.765Z,101180.03
2022-10-17T16:45:18.549Z,101180.09
2022-10-17T16:47:45.709Z,101176.00
2022-10-17T16:50:13.344Z,101183.66
2022-10-17T16:52:39.965Z,101180.03
2022-10-17T16:55:08.860Z,101192.75
2022-10-17T17:00:12.974Z,101185.78
2022-10-17T17:02:41.964Z,101205.88
2022-10-17T17:05:08.839Z,101205.16
2022-10-17T17:07:35.661Z,101209.13
2022-10-17T17:10:02.612Z,101202.91
2022-10-17T17:12:29.628Z,101210.44
2022-10-17T17:14:56.552Z,101207.22
2022-10-17T17:17:37.218Z,101205.25
2022-10-17T17:20:10.071Z,101201.97
2022-10-17T17:22:36.712Z,101195.78
2022-10-17T17:25:03.453Z,101199.31
2022-10-17T17:27:30.605Z,101218.03
2022-10-17T17:29:57.610Z,101212.25
2022-10-17T17:32:24.246Z,101212.13
2022-10-17T17:34:50.893Z,101227.03
2022-10-17T17:37:17.655Z,101230.03
2022-10-17T17:39:44.305Z,101233.66
2022-10-17T17:42:10.984Z,101239.25
2022-10-17T17:44:37.720Z,101240.81
2022-10-17T17:47:04.421Z,101244.09
2022-10-17T17:49:30.977Z,101243.44
2022-10-17T17:52:00.005Z,101260.22
2022-10-17T17:54:31.614Z,101250.56
2022-10-17T17:56:58.456Z,101278.78
2022-10-17T17:59:26.249Z,101230.34
2022-10-17T18:01:53.280Z,101237.06
2022-10-17T18:04:19.983Z,101250.78
2022-10-17T18:06:46.770Z,101246.06
2022-10-17T18:09:13.350Z,101249.63
2022-10-17T18:11:40.030Z,101253.53
2022-10-17T18:14:10.361Z,101258.75
2022-10-17T18:16:37.533Z,101250.06
2022-10-17T18:19:07.294Z,101243.97
2022-10-17T18:21:35.330Z,101252.03
2022-10-17T18:24:02.593Z,101256.88
2022-10-17T18:26:29.240Z,101259.16
2022-10-17T18:28:56.656Z,101260.03
2022-10-17T18:31:28.281Z,101257.50
2022-10-17T18:33:56.936Z,101258.63
2022-10-17T18:36:26.044Z,101257.72
2022-10-17T18:38:53.442Z,101258.00
2022-10-17T18:41:21.844Z,101252.88
2022-10-17T18:43:49.475Z,101269.97
2022-10-17T18:46:18.338Z,101265.47
2022-10-17T18:48:46.462Z,101258.22
2022-10-17T18:51:18.964Z,101269.16
2022-10-17T18:53:48.062Z,101272.91
2022-10-17T18:56:15.113Z,101274.69
2022-10-17T18:58:42.315Z,101283.88
2022-10-17T19:01:17.618Z,101284.22
2022-10-17T19:03:46.958Z,101285.25
2022-10-17T19:06:15.909Z,101285.06
2022-10-17T19:08:43.490Z,101297.63
2022-10-17T19:11:15.823Z,101291.53
2022-10-17T19:13:43.655Z,101289.66
2022-10-17T19:16:19.451Z,101310.09
2022-10-17T19:18:51.248Z,101303.28
2022-10-17T19:21:21.752Z,101317.94
2022-10-17T19:23:53.541Z,101304.84
2022-10-17T19:26:21.407Z,101304.13
2022-10-17T19:28:48.442Z,101312.28
2022-10-17T19:31:17.939Z,101322.59
2022-10-17T19:33:45.233Z,101319.41
2022-10-17T19:36:13.253Z,101313.66
2022-10-17T19:38:39.978Z,101322.16
2022-10-17T19:41:08.232Z,101318.13
2022-10-17T19:43:39.034Z,101320.53
2022-10-17T19:46:08.317Z,101318.81
2022-10-17T19:48:39.200Z,101316.25
2022-10-17T19:51:07.750Z,101316.63
2022-10-17T19:53:35.156Z,101317.78
2022-10-17T19:56:02.414Z,101309.53
2022-10-17T19:58:29.210Z,101312.81
2022-10-17T20:00:58.572Z,101312.56
2022-10-17T20:03:25.462Z,101311.19
2022-10-17T20:05:52.192Z,101320.00
2022-10-17T20:08:19.159Z,101320.66
2022-10-17T20:10:46.331Z,101324.25
2022-10-17T20:13:14.110Z,101322.44
2022-10-17T20:15:40.936Z,101329.28
2022-10-17T20:18:08.223Z,101330.34
2022-10-17T20:20:35.845Z,101331.97
2022-10-17T20:23:03.439Z,101345.13
2022-10-17T20:25:30.561Z,101347.19
2022-10-17T20:27:57.187Z,101359.91
2022-10-17T20:30:23.861Z,101354.28
2022-10-17T20:32:55.125Z,101358.53
2022-10-17T20:35:22.215Z,101348.81
2022-10-17T20:37:49.418Z,101352.94
2022-10-17T20:40:34.033Z,101347.06
2022-10-17T20:43:01.857Z,101367.88
2022-10-17T20:45:43.617Z,101362.63
2022-10-17T20:48:16.574Z,101363.44
2022-10-17T20:50:44.081Z,101377.84
2022-10-17T20:53:35.396Z,101379.66
2022-10-17T20:56:04.542Z,101382.34
2022-10-17T20:58:31.502Z,101376.38
2022-10-17T21:00:58.175Z,101368.91
2022-10-17T21:03:26.137Z,101382.34
2022-10-17T21:05:52.743Z,101374.28
2022-10-17T21:08:19.410Z,101361.88
2022-10-17T21:10:46.069Z,101368.66
2022-10-17T21:13:12.751Z,101386.28
2022-10-17T21:15:39.303Z,101392.06
2022-10-17T21:18:05.962Z,101404.00
2022-10-17T21:20:32.538Z,101402.25
2022-10-17T21:23:00.547Z,101396.91
2022-10-17T21:25:27.323Z,101401.13
2022-10-17T21:27:54.099Z,101404.59
2022-10-17T21:30:21.841Z,101409.09
2022-10-17T21:32:53.984Z,101411.88
2022-10-17T21:35:21.001Z,101412.81
2022-10-17T21:37:47.653Z,101421.88
2022-10-17T21:40:14.586Z,101423.25
2022-10-17T21:42:41.308Z,101428.78
2022-10-17T21:45:15.168Z,101422.25
2022-10-17T21:47:54.943Z,101429.44
2022-10-17T21:50:29.626Z,101428.34
2022-10-17T21:52:58.130Z,101432.50
2022-10-17T21:55:24.822Z,101439.72
2022-10-17T21:57:53.220Z,101446.53
2022-10-17T22:00:19.853Z,101437.19
2022-10-17T22:02:46.427Z,101437.75
2022-10-17T22:05:13.103Z,101438.22
2022-10-17T22:07:39.838Z,101432.25
2022-10-17T22:10:07.000Z,101444.66
2022-10-17T22:12:33.742Z,101437.66
2022-10-17T22:15:00.565Z,101429.72
2022-10-17T22:17:27.461Z,101426.16
2022-10-17T22:19:54.295Z,101424.28
2022-10-17T22:22:21.050Z,101438.56
2022-10-17T22:24:47.600Z,101436.63
2022-10-17T22:27:14.165Z,101432.34
2022-10-17T22:29:40.787Z,101436.34
2022-10-17T22:32:07.395Z,101434.66
2022-10-17T22:34:33.966Z,101436.91
2022-10-17T22:37:01.055Z,101434.56
2022-10-17T22:39:27.619Z,101424.31
2022-10-17T22:41:54.227Z,101437.09
2022-10-17T22:44:20.907Z,101430.09
2022-10-17T22:46:47.710Z,101434.00
2022-10-17T22:49:14.384Z,101432.16
2022-10-17T22:51:41.043Z,101429.88
2022-10-17T22:54:07.801Z,101432.16
2022-10-17T22:56:34.438Z,101428.47
2022-10-17T22:59:02.177Z,101435.78
2022-10-17T23:01:28.936Z,101427.94
2022-10-17T23:03:55.558Z,101431.31
2022-10-17T23:06:24.060Z,101435.22
2022-10-17T23:08:50.804Z,101441.31
2022-10-17T23:11:18.088Z,101440.00
2022-10-17T23:13:44.748Z,101439.91
2022-10-17T23:16:11.419Z,101441.50
2022-10-17T23:18:38.801Z,101450.81
2022-10-17T23:21:06.525Z,101446.53
2022-10-17T23:23:33.488Z,101453.25
2022-10-17T23:26:09.828Z,101453.69
2022-10-17T23:28:36.803Z,101463.22
2022-10-17T23:31:18.632Z,101465.88
2022-10-17T23:33:46.909Z,101460.19
2022-10-17T23:36:15.047Z,101467.38
2022-10-17T23:38:43.691Z,101465.88
2022-10-17T23:41:11.112Z,101458.97
2022-10-17T23:43:37.806Z,101472.69
2022-10-17T23:46:05.722Z,101459.41
2022-10-17T23:48:32.851Z,101471.84
2022-10-17T23:51:02.267Z,101471.19
2022-10-17T23:53:28.921Z,101463.16
2022-10-17T23:55:55.682Z,101471.78
2022-10-17T23:58:22.574Z,101473.25
